sensor_id;sensor_type;location;lat;lon;timestamp;pressure;altitude;pressure_sealevel;temperature;humidity
11343;BME280;5726;42.160;24.746;2023-02-01T00:01:26;99694.84;;;5.49;83.56
11343;BME280;5726;42.160;24.746;2023-02-01T00:03:52;99695.22;;;5.58;83.10
11343;BME280;5726;42.160;24.746;2023-02-01T00:06:17;99701.59;;;5.57;82.79
11343;BME280;5726;42.160;24.746;2023-02-01T00:08:42;99696.72;;;5.75;82.19
11343;BME280;5726;42.160;24.746;2023-02-01T00:11:10;99690.28;;;5.71;81.37
11343;BME280;5726;42.160;24.746;2023-02-01T00:13:38;99690.28;;;5.71;81.77
11343;BME280;5726;42.160;24.746;2023-02-01T00:16:32;99696.94;;;5.73;81.91
11343;BME280;5726;42.160;24.746;2023-02-01T00:19:03;99690.78;;;5.68;81.59
11343;BME280;5726;42.160;24.746;2023-02-01T00:21:30;99696.78;;;5.80;81.32
11343;BME280;5726;42.160;24.746;2023-02-01T00:23:56;99693.38;;;5.63;81.51
11343;BME280;5726;42.160;24.746;2023-02-01T00:26:42;99697.81;;;5.79;80.83
11343;BME280;5726;42.160;24.746;2023-02-01T00:29:14;99694.53;;;5.72;81.21
11343;BME280;5726;42.160;24.746;2023-02-01T00:31:40;99699.81;;;5.67;80.94
11343;BME280;5726;42.160;24.746;2023-02-01T00:34:06;99694.16;;;5.59;81.91
11343;BME280;5726;42.160;24.746;2023-02-01T00:36:31;99688.03;;;5.58;81.44
11343;BME280;5726;42.160;24.746;2023-02-01T00:38:57;99689.16;;;5.62;81.32
11343;BME280;5726;42.160;24.746;2023-02-01T00:41:22;99689.84;;;5.79;80.86
11343;BME280;5726;42.160;24.746;2023-02-01T00:43:49;99698.81;;;5.73;81.09
11343;BME280;5726;42.160;24.746;2023-02-01T00:46:16;99699.16;;;5.55;81.63
11343;BME280;5726;42.160;24.746;2023-02-01T00:48:42;99699.44;;;5.54;81.64
11343;BME280;5726;42.160;24.746;2023-02-01T00:51:13;99707.03;;;5.45;81.66
11343;BME280;5726;42.160;24.746;2023-02-01T00:53:38;99709.94;;;5.44;81.81
11343;BME280;5726;42.160;24.746;2023-02-01T00:56:05;99705.59;;;5.59;81.56
11343;BME280;5726;42.160;24.746;2023-02-01T00:58:32;99698.53;;;5.43;82.17
11343;BME280;5726;42.160;24.746;2023-02-01T01:01:06;99693.19;;;5.43;82.05
11343;BME280;5726;42.160;24.746;2023-02-01T01:03:33;99686.09;;;5.49;81.43
11343;BME280;5726;42.160;24.746;2023-02-01T01:06:00;99691.69;;;5.26;82.73
11343;BME280;5726;42.160;24.746;2023-02-01T01:08:26;99692.38;;;5.17;83.19
11343;BME280;5726;42.160;24.746;2023-02-01T01:10:52;99682.97;;;5.30;82.94
11343;BME280;5726;42.160;24.746;2023-02-01T01:13:17;99686.22;;;5.37;82.51
11343;BME280;5726;42.160;24.746;2023-02-01T01:15:43;99686.31;;;5.21;83.32
11343;BME280;5726;42.160;24.746;2023-02-01T01:18:08;99690.06;;;4.99;84.32
11343;BME280;5726;42.160;24.746;2023-02-01T01:20:35;99680.22;;;5.21;84.03
11343;BME280;5726;42.160;24.746;2023-02-01T01:23:02;99687.19;;;5.26;83.48
11343;BME280;5726;42.160;24.746;2023-02-01T01:25:27;99676.56;;;5.26;83.58
11343;BME280;5726;42.160;24.746;2023-02-01T01:27:53;99682.38;;;5.23;83.52
11343;BME280;5726;42.160;24.746;2023-02-01T01:30:18;99682.94;;;5.04;84.01
11343;BME280;5726;42.160;24.746;2023-02-01T01:32:44;99679.38;;;5.20;84.12
11343;BME280;5726;42.160;24.746;2023-02-01T01:35:10;99682.88;;;5.21;83.74
11343;BME280;5726;42.160;24.746;2023-02-01T01:37:36;99678.59;;;5.20;83.79
11343;BME280;5726;42.160;24.746;2023-02-01T01:40:05;99682.75;;;5.11;84.16
11343;BME280;5726;42.160;24.746;2023-02-01T01:42:37;99682.88;;;5.21;83.80
11343;BME280;5726;42.160;24.746;2023-02-01T01:45:06;99687.53;;;5.09;84.24
11343;BME280;5726;42.160;24.746;2023-02-01T01:47:44;99684.91;;;5.14;83.69
11343;BME280;5726;42.160;24.746;2023-02-01T01:50:15;99685.16;;;5.12;83.66
11343;BME280;5726;42.160;24.746;2023-02-01T01:52:49;99685.28;;;4.79;85.02
11343;BME280;5726;42.160;24.746;2023-02-01T01:55:17;99693.75;;;4.76;84.96
11343;BME280;5726;42.160;24.746;2023-02-01T01:57:47;99692.47;;;4.79;85.10
11343;BME280;5726;42.160;24.746;2023-02-01T02:00:17;99697.19;;;4.93;84.58
11343;BME280;5726;42.160;24.746;2023-02-01T02:02:46;99677.75;;;4.93;84.52
11343;BME280;5726;42.160;24.746;2023-02-01T02:05:13;99678.50;;;4.67;85.51
11343;BME280;5726;42.160;24.746;2023-02-01T02:07:44;99682.41;;;4.60;86.08
11343;BME280;5726;42.160;24.746;2023-02-01T02:10:12;99687.31;;;4.51;86.03
11343;BME280;5726;42.160;24.746;2023-02-01T02:12:39;99681.50;;;4.54;86.24
11343;BME280;5726;42.160;24.746;2023-02-01T02:15:07;99688.63;;;4.49;86.73
11343;BME280;5726;42.160;24.746;2023-02-01T02:18:08;99693.19;;;4.53;86.68
11343;BME280;5726;42.160;24.746;2023-02-01T02:26:55;99695.28;;;4.51;86.15
11343;BME280;5726;42.160;24.746;2023-02-01T02:37:42;99693.47;;;4.35;86.55
11343;BME280;5726;42.160;24.746;2023-02-01T02:40:15;99691.19;;;4.44;86.27
11343;BME280;5726;42.160;24.746;2023-02-01T02:46:16;99693.94;;;4.70;85.21
11343;BME280;5726;42.160;24.746;2023-02-01T02:49:19;99702.16;;;4.69;85.69
11343;BME280;5726;42.160;24.746;2023-02-01T02:51:50;99704.88;;;4.36;87.30
11343;BME280;5726;42.160;24.746;2023-02-01T02:54:40;99703.38;;;4.40;86.66
11343;BME280;5726;42.160;24.746;2023-02-01T02:57:32;99695.88;;;4.74;85.75
11343;BME280;5726;42.160;24.746;2023-02-01T03:00:20;99697.28;;;4.61;86.21
11343;BME280;5726;42.160;24.746;2023-02-01T03:03:06;99692.31;;;4.48;85.95
11343;BME280;5726;42.160;24.746;2023-02-01T03:05:51;99698.09;;;4.61;85.59
11343;BME280;5726;42.160;24.746;2023-02-01T03:08:28;99691.09;;;4.55;85.98
11343;BME280;5726;42.160;24.746;2023-02-01T03:13:31;99679.72;;;4.38;86.33
11343;BME280;5726;42.160;24.746;2023-02-01T03:16:04;99690.38;;;4.60;86.02
11343;BME280;5726;42.160;24.746;2023-02-01T03:21:13;99693.34;;;4.47;86.43
11343;BME280;5726;42.160;24.746;2023-02-01T03:23:42;99700.69;;;4.56;86.20
11343;BME280;5726;42.160;24.746;2023-02-01T03:26:11;99690.34;;;4.38;87.39
11343;BME280;5726;42.160;24.746;2023-02-01T03:28:43;99695.19;;;4.63;86.12
11343;BME280;5726;42.160;24.746;2023-02-01T03:31:11;99696.25;;;4.45;86.90
11343;BME280;5726;42.160;24.746;2023-02-01T03:33:36;99692.34;;;4.31;88.00
11343;BME280;5726;42.160;24.746;2023-02-01T03:36:25;99701.66;;;4.50;87.55
11343;BME280;5726;42.160;24.746;2023-02-01T03:39:03;99702.44;;;4.51;87.44
11343;BME280;5726;42.160;24.746;2023-02-01T03:44:48;99696.78;;;4.26;88.42
11343;BME280;5726;42.160;24.746;2023-02-01T03:47:23;99693.16;;;4.16;89.17
11343;BME280;5726;42.160;24.746;2023-02-01T03:50:00;99702.44;;;4.51;87.97
11343;BME280;5726;42.160;24.746;2023-02-01T03:55:03;99698.41;;;4.11;89.91
11343;BME280;5726;42.160;24.746;2023-02-01T03:57:33;99693.38;;;4.30;89.31
11343;BME280;5726;42.160;24.746;2023-02-01T04:00:19;99704.72;;;4.42;88.76
11343;BME280;5726;42.160;24.746;2023-02-01T04:02:47;99703.25;;;4.51;88.22
11343;BME280;5726;42.160;24.746;2023-02-01T04:05:12;99700.03;;;4.49;88.51
11343;BME280;5726;42.160;24.746;2023-02-01T04:07:38;99704.28;;;4.67;87.51
11343;BME280;5726;42.160;24.746;2023-02-01T04:10:03;99702.88;;;4.43;87.90
11343;BME280;5726;42.160;24.746;2023-02-01T04:12:29;99700.06;;;4.33;88.56
11343;BME280;5726;42.160;24.746;2023-02-01T04:14:54;99710.16;;;4.52;87.47
11343;BME280;5726;42.160;24.746;2023-02-01T04:17:20;99711.63;;;4.43;87.80
11343;BME280;5726;42.160;24.746;2023-02-01T04:19:45;99726.75;;;4.59;86.82
11343;BME280;5726;42.160;24.746;2023-02-01T04:22:11;99726.66;;;4.54;86.55
11343;BME280;5726;42.160;24.746;2023-02-01T04:24:37;99726.75;;;4.59;85.89
11343;BME280;5726;42.160;24.746;2023-02-01T04:27:03;99730.69;;;4.78;84.92
11343;BME280;5726;42.160;24.746;2023-02-01T04:29:28;99735.06;;;4.68;85.17
11343;BME280;5726;42.160;24.746;2023-02-01T04:31:53;99738.66;;;4.78;84.15
11343;BME280;5726;42.160;24.746;2023-02-01T04:34:19;99736.63;;;4.64;84.84
11343;BME280;5726;42.160;24.746;2023-02-01T04:36:44;99737.97;;;4.66;84.65
11343;BME280;5726;42.160;24.746;2023-02-01T04:39:10;99740.97;;;4.91;83.31
11343;BME280;5726;42.160;24.746;2023-02-01T04:41:35;99745.53;;;4.74;84.12
11343;BME280;5726;42.160;24.746;2023-02-01T04:44:01;99734.19;;;4.78;83.78
11343;BME280;5726;42.160;24.746;2023-02-01T04:46:26;99740.59;;;4.82;83.01
11343;BME280;5726;42.160;24.746;2023-02-01T04:48:52;99735.97;;;4.94;83.09
11343;BME280;5726;42.160;24.746;2023-02-01T04:51:17;99740.41;;;4.89;83.26
11343;BME280;5726;42.160;24.746;2023-02-01T04:53:44;99748.09;;;4.69;83.64
11343;BME280;5726;42.160;24.746;2023-02-01T04:56:09;99741.69;;;4.65;83.36
11343;BME280;5726;42.160;24.746;2023-02-01T04:58:35;99739.53;;;4.62;83.98
11343;BME280;5726;42.160;24.746;2023-02-01T05:01:05;99745.44;;;4.69;82.52
11343;BME280;5726;42.160;24.746;2023-02-01T05:03:34;99737.19;;;4.49;83.02
11343;BME280;5726;42.160;24.746;2023-02-01T05:06:00;99740.91;;;4.48;82.42
11343;BME280;5726;42.160;24.746;2023-02-01T05:08:26;99747.03;;;4.49;82.45
11343;BME280;5726;42.160;24.746;2023-02-01T05:10:53;99747.72;;;4.61;81.72
11343;BME280;5726;42.160;24.746;2023-02-01T05:13:19;99747.34;;;4.52;80.94
11343;BME280;5726;42.160;24.746;2023-02-01T05:16:03;99745.66;;;4.46;81.16
11343;BME280;5726;42.160;24.746;2023-02-01T05:18:28;99755.34;;;4.57;80.95
11343;BME280;5726;42.160;24.746;2023-02-01T05:20:54;99759.09;;;4.56;81.29
11343;BME280;5726;42.160;24.746;2023-02-01T05:23:20;99759.84;;;4.73;80.48
11343;BME280;5726;42.160;24.746;2023-02-01T05:25:45;99752.31;;;4.65;81.14
11343;BME280;5726;42.160;24.746;2023-02-01T05:28:11;99738.94;;;4.60;81.45
11343;BME280;5726;42.160;24.746;2023-02-01T05:30:36;99750.50;;;4.71;81.19
11343;BME280;5726;42.160;24.746;2023-02-01T05:33:03;99744.00;;;4.62;82.71
11343;BME280;5726;42.160;24.746;2023-02-01T05:35:28;99744.84;;;4.83;82.54
11343;BME280;5726;42.160;24.746;2023-02-01T05:37:54;99742.44;;;4.82;82.01
11343;BME280;5726;42.160;24.746;2023-02-01T05:40:19;99744.06;;;4.83;83.76
11343;BME280;5726;42.160;24.746;2023-02-01T05:42:44;99747.06;;;4.91;82.09
11343;BME280;5726;42.160;24.746;2023-02-01T05:45:10;99751.41;;;4.97;81.69
11343;BME280;5726;42.160;24.746;2023-02-01T05:47:36;99755.00;;;5.08;81.50
11343;BME280;5726;42.160;24.746;2023-02-01T05:50:03;99745.41;;;5.28;80.62
11343;BME280;5726;42.160;24.746;2023-02-01T05:52:29;99742.47;;;5.51;78.78
11343;BME280;5726;42.160;24.746;2023-02-01T05:54:55;99746.47;;;5.74;77.93
11343;BME280;5726;42.160;24.746;2023-02-01T05:57:20;99750.25;;;6.10;75.92
11343;BME280;5726;42.160;24.746;2023-02-01T05:59:45;99742.84;;;6.17;74.97
11343;BME280;5726;42.160;24.746;2023-02-01T06:02:13;99745.75;;;6.15;74.03
11343;BME280;5726;42.160;24.746;2023-02-01T06:04:38;99752.31;;;5.76;75.59
11343;BME280;5726;42.160;24.746;2023-02-01T06:07:05;99753.56;;;5.69;74.84
11343;BME280;5726;42.160;24.746;2023-02-01T06:09:32;99758.03;;;5.64;75.37
11343;BME280;5726;42.160;24.746;2023-02-01T06:11:57;99753.41;;;5.54;75.71
11343;BME280;5726;42.160;24.746;2023-02-01T06:14:23;99758.28;;;5.62;75.76
11343;BME280;5726;42.160;24.746;2023-02-01T06:16:49;99764.16;;;5.64;75.86
11343;BME280;5726;42.160;24.746;2023-02-01T06:19:15;99759.53;;;5.55;76.20
11343;BME280;5726;42.160;24.746;2023-02-01T06:21:40;99765.88;;;6.01;74.69
11343;BME280;5726;42.160;24.746;2023-02-01T06:24:06;99761.31;;;6.28;73.49
11343;BME280;5726;42.160;24.746;2023-02-01T06:26:31;99776.03;;;6.40;73.02
11343;BME280;5726;42.160;24.746;2023-02-01T06:28:57;99772.94;;;6.53;71.67
11343;BME280;5726;42.160;24.746;2023-02-01T06:31:22;99770.00;;;6.50;72.11
11343;BME280;5726;42.160;24.746;2023-02-01T06:33:48;99775.47;;;6.33;72.65
11343;BME280;5726;42.160;24.746;2023-02-01T06:36:14;99778.13;;;6.02;73.49
11343;BME280;5726;42.160;24.746;2023-02-01T06:38:44;99771.63;;;6.19;73.28
11343;BME280;5726;42.160;24.746;2023-02-01T06:41:09;99776.59;;;6.42;72.68
11343;BME280;5726;42.160;24.746;2023-02-01T06:43:36;99777.16;;;6.44;72.39
11343;BME280;5726;42.160;24.746;2023-02-01T06:46:05;99773.84;;;6.32;73.07
11343;BME280;5726;42.160;24.746;2023-02-01T06:48:31;99779.09;;;6.22;72.89
11343;BME280;5726;42.160;24.746;2023-02-01T06:50:57;99784.94;;;6.19;73.55
11343;BME280;5726;42.160;24.746;2023-02-01T06:53:23;99783.84;;;6.16;73.51
11343;BME280;5726;42.160;24.746;2023-02-01T06:56:08;99781.50;;;6.24;72.69
11343;BME280;5726;42.160;24.746;2023-02-01T06:58:34;99788.59;;;6.14;72.99
11343;BME280;5726;42.160;24.746;2023-02-01T07:01:06;99796.81;;;6.07;73.02
11343;BME280;5726;42.160;24.746;2023-02-01T07:03:32;99799.31;;;6.18;72.25
11343;BME280;5726;42.160;24.746;2023-02-01T07:05:58;99793.88;;;6.09;72.75
11343;BME280;5726;42.160;24.746;2023-02-01T07:08:24;99791.97;;;6.30;71.63
11343;BME280;5726;42.160;24.746;2023-02-01T07:10:51;99796.41;;;6.20;72.37
11343;BME280;5726;42.160;24.746;2023-02-01T07:13:17;99796.41;;;6.20;72.87
11343;BME280;5726;42.160;24.746;2023-02-01T07:15:42;99790.44;;;6.39;71.86
11343;BME280;5726;42.160;24.746;2023-02-01T07:18:07;99796.31;;;6.46;71.73
11343;BME280;5726;42.160;24.746;2023-02-01T07:20:33;99796.78;;;6.33;71.89
11343;BME280;5726;42.160;24.746;2023-02-01T07:22:58;99796.94;;;6.22;72.82
11343;BME280;5726;42.160;24.746;2023-02-01T07:25:24;99811.03;;;6.22;72.71
11343;BME280;5726;42.160;24.746;2023-02-01T07:27:49;99802.13;;;6.38;72.11
11343;BME280;5726;42.160;24.746;2023-02-01T07:30:15;99802.47;;;6.47;72.77
11343;BME280;5726;42.160;24.746;2023-02-01T07:32:40;99813.84;;;6.37;71.63
11343;BME280;5726;42.160;24.746;2023-02-01T07:35:06;99806.44;;;6.44;71.06
11343;BME280;5726;42.160;24.746;2023-02-01T07:37:32;99800.97;;;6.24;71.47
11343;BME280;5726;42.160;24.746;2023-02-01T07:39:57;99800.91;;;6.19;71.13
11343;BME280;5726;42.160;24.746;2023-02-01T07:42:22;99791.34;;;6.23;70.32
11343;BME280;5726;42.160;24.746;2023-02-01T07:44:48;99794.19;;;6.43;69.44
11343;BME280;5726;42.160;24.746;2023-02-01T07:47:13;99798.59;;;6.28;70.19
11343;BME280;5726;42.160;24.746;2023-02-01T07:49:39;99796.28;;;6.36;69.70
11343;BME280;5726;42.160;24.746;2023-02-01T07:52:04;99806.31;;;6.29;70.26
11343;BME280;5726;42.160;24.746;2023-02-01T07:54:30;99798.16;;;6.41;69.73
11343;BME280;5726;42.160;24.746;2023-02-01T07:56:56;99804.88;;;6.48;69.50
11343;BME280;5726;42.160;24.746;2023-02-01T07:59:21;99803.88;;;6.54;69.74
11343;BME280;5726;42.160;24.746;2023-02-01T08:01:47;99804.94;;;6.58;69.71
11343;BME280;5726;42.160;24.746;2023-02-01T08:04:12;99805.41;;;6.45;70.82
11343;BME280;5726;42.160;24.746;2023-02-01T08:06:38;99812.47;;;6.66;70.09
11343;BME280;5726;42.160;24.746;2023-02-01T08:09:05;99811.38;;;6.62;70.41
11343;BME280;5726;42.160;24.746;2023-02-01T08:11:31;99808.28;;;6.75;70.26
11343;BME280;5726;42.160;24.746;2023-02-01T08:13:57;99815.69;;;6.68;71.19
11343;BME280;5726;42.160;24.746;2023-02-01T08:16:23;99809.59;;;6.77;71.16
11343;BME280;5726;42.160;24.746;2023-02-01T08:18:49;99809.91;;;6.81;71.63
11343;BME280;5726;42.160;24.746;2023-02-01T08:21:21;99822.81;;;6.99;70.44
11343;BME280;5726;42.160;24.746;2023-02-01T08:23:47;99821.97;;;6.88;70.43
11343;BME280;5726;42.160;24.746;2023-02-01T08:28:45;99827.53;;;6.87;71.60
11343;BME280;5726;42.160;24.746;2023-02-01T08:31:13;99834.63;;;7.13;75.29
11343;BME280;5726;42.160;24.746;2023-02-01T08:33:43;99826.44;;;7.24;70.50
11343;BME280;5726;42.160;24.746;2023-02-01T08:36:10;99822.69;;;7.25;70.23
11343;BME280;5726;42.160;24.746;2023-02-01T08:38:37;99822.44;;;7.26;71.54
11343;BME280;5726;42.160;24.746;2023-02-01T08:41:08;99824.97;;;7.02;71.75
11343;BME280;5726;42.160;24.746;2023-02-01T08:43:34;99824.53;;;7.19;70.66
11343;BME280;5726;42.160;24.746;2023-02-01T08:45:59;99823.97;;;7.17;71.08
11343;BME280;5726;42.160;24.746;2023-02-01T08:48:25;99831.09;;;7.02;71.83
11343;BME280;5726;42.160;24.746;2023-02-01T08:50:50;99827.63;;;7.02;72.21
11343;BME280;5726;42.160;24.746;2023-02-01T08:53:16;99821.09;;;7.24;71.64
11343;BME280;5726;42.160;24.746;2023-02-01T08:55:41;99818.88;;;7.11;71.77
11343;BME280;5726;42.160;24.746;2023-02-01T08:58:07;99813.88;;;7.19;72.48
11343;BME280;5726;42.160;24.746;2023-02-01T09:00:32;99816.38;;;7.41;71.63
11343;BME280;5726;42.160;24.746;2023-02-01T09:02:57;99819.41;;;7.69;72.88
11343;BME280;5726;42.160;24.746;2023-02-01T09:05:24;99809.25;;;7.71;71.68
11343;BME280;5726;42.160;24.746;2023-02-01T09:07:52;99801.34;;;8.06;71.12
11343;BME280;5726;42.160;24.746;2023-02-01T09:10:18;99804.63;;;8.32;70.42
11343;BME280;5726;42.160;24.746;2023-02-01T09:12:43;99797.66;;;8.46;69.76
11343;BME280;5726;42.160;24.746;2023-02-01T09:15:09;99805.13;;;8.89;68.60
11343;BME280;5726;42.160;24.746;2023-02-01T09:17:35;99810.16;;;9.00;68.79
11343;BME280;5726;42.160;24.746;2023-02-01T09:20:01;99803.97;;;9.24;68.24
11343;BME280;5726;42.160;24.746;2023-02-01T09:22:26;99794.72;;;9.55;67.28
11343;BME280;5726;42.160;24.746;2023-02-01T09:24:52;99789.47;;;9.35;67.68
11343;BME280;5726;42.160;24.746;2023-02-01T09:27:18;99782.16;;;9.55;66.41
11343;BME280;5726;42.160;24.746;2023-02-01T09:29:44;99783.97;;;9.65;68.41
11343;BME280;5726;42.160;24.746;2023-02-01T09:32:09;99779.72;;;9.59;66.12
11343;BME280;5726;42.160;24.746;2023-02-01T09:34:35;99785.31;;;9.62;66.08
11343;BME280;5726;42.160;24.746;2023-02-01T09:37:00;99770.75;;;9.83;66.08
11343;BME280;5726;42.160;24.746;2023-02-01T09:39:27;99772.03;;;9.91;65.17
11343;BME280;5726;42.160;24.746;2023-02-01T09:47:58;99760.75;;;9.55;64.57
11343;BME280;5726;42.160;24.746;2023-02-01T09:50:36;99753.78;;;9.54;64.53
11343;BME280;5726;42.160;24.746;2023-02-01T09:53:18;99759.06;;;9.69;64.73
11343;BME280;5726;42.160;24.746;2023-02-01T09:55:51;99740.78;;;9.81;63.93
11343;BME280;5726;42.160;24.746;2023-02-01T09:58:37;99757.06;;;9.95;63.19
11343;BME280;5726;42.160;24.746;2023-02-01T10:01:13;99754.19;;;9.76;63.54
11343;BME280;5726;42.160;24.746;2023-02-01T10:03:40;99734.56;;;9.96;63.37
11343;BME280;5726;42.160;24.746;2023-02-01T10:06:20;99742.25;;;10.02;63.61
11343;BME280;5726;42.160;24.746;2023-02-01T10:22:46;99732.84;;;9.66;64.81
11343;BME280;5726;42.160;24.746;2023-02-01T10:27:48;99711.28;;;9.43;65.90
11343;BME280;5726;42.160;24.746;2023-02-01T10:30:19;99711.09;;;9.30;66.19
11343;BME280;5726;42.160;24.746;2023-02-01T10:32:48;99718.13;;;9.64;65.08
11343;BME280;5726;42.160;24.746;2023-02-01T10:35:17;99705.56;;;9.59;65.17
11343;BME280;5726;42.160;24.746;2023-02-01T10:37:44;99713.84;;;9.63;65.46
11343;BME280;5726;42.160;24.746;2023-02-01T10:40:23;99708.41;;;9.78;67.38
11343;BME280;5726;42.160;24.746;2023-02-01T10:42:51;99688.75;;;9.97;64.94
11343;BME280;5726;42.160;24.746;2023-02-01T10:45:21;99689.03;;;9.96;63.91
11343;BME280;5726;42.160;24.746;2023-02-01T10:47:49;99690.03;;;10.00;63.56
11343;BME280;5726;42.160;24.746;2023-02-01T10:52:52;99698.91;;;9.95;62.95
11343;BME280;5726;42.160;24.746;2023-02-01T10:55:40;99695.91;;;10.06;63.32
11343;BME280;5726;42.160;24.746;2023-02-01T10:58:17;99710.44;;;9.96;63.42
11343;BME280;5726;42.160;24.746;2023-02-01T11:01:01;99700.19;;;10.07;63.79
11343;BME280;5726;42.160;24.746;2023-02-01T11:08:52;99687.00;;;10.11;63.27
11343;BME280;5726;42.160;24.746;2023-02-01T11:11:19;99661.69;;;9.99;63.12
11343;BME280;5726;42.160;24.746;2023-02-01T11:13:52;99683.16;;;9.89;62.71
11343;BME280;5726;42.160;24.746;2023-02-01T11:16:18;99680.50;;;9.84;62.61
11343;BME280;5726;42.160;24.746;2023-02-01T11:18:44;99667.69;;;9.76;63.06
11343;BME280;5726;42.160;24.746;2023-02-01T11:21:10;99670.88;;;9.83;63.08
11343;BME280;5726;42.160;24.746;2023-02-01T11:23:43;99674.06;;;9.85;62.65
11343;BME280;5726;42.160;24.746;2023-02-01T11:26:19;99670.59;;;9.84;62.54
11343;BME280;5726;42.160;24.746;2023-02-01T11:29:04;99675.91;;;10.22;62.38
11343;BME280;5726;42.160;24.746;2023-02-01T11:31:34;99669.41;;;10.33;62.51
11343;BME280;5726;42.160;24.746;2023-02-01T11:34:16;99663.19;;;10.61;61.28
11343;BME280;5726;42.160;24.746;2023-02-01T11:36:45;99664.28;;;10.60;60.90
11343;BME280;5726;42.160;24.746;2023-02-01T11:44:39;99663.69;;;10.40;61.53
11343;BME280;5726;42.160;24.746;2023-02-01T11:49:49;99661.16;;;10.25;61.71
11343;BME280;5726;42.160;24.746;2023-02-01T11:52:56;99648.88;;;10.47;61.68
11343;BME280;5726;42.160;24.746;2023-02-01T12:01:30;99647.78;;;10.71;60.48
11343;BME280;5726;42.160;24.746;2023-02-01T12:20:58;99615.38;;;10.68;60.79
11343;BME280;5726;42.160;24.746;2023-02-01T12:31:40;99624.56;;;10.85;59.96
11343;BME280;5726;42.160;24.746;2023-02-01T12:36:51;99614.50;;;10.96;59.38
11343;BME280;5726;42.160;24.746;2023-02-01T12:39:40;99617.50;;;10.71;59.69
11343;BME280;5726;42.160;24.746;2023-02-01T12:47:28;99615.47;;;11.23;58.22
11343;BME280;5726;42.160;24.746;2023-02-01T12:50:04;99615.09;;;11.29;58.18
11343;BME280;5726;42.160;24.746;2023-02-01T12:52:39;99610.09;;;11.23;57.89
11343;BME280;5726;42.160;24.746;2023-02-01T12:55:23;99614.69;;;11.22;58.01
11343;BME280;5726;42.160;24.746;2023-02-01T12:57:53;99618.06;;;10.91;58.62
11343;BME280;5726;42.160;24.746;2023-02-01T13:00:27;99616.94;;;10.74;58.91
11343;BME280;5726;42.160;24.746;2023-02-01T13:03:02;99629.56;;;10.92;58.19
11343;BME280;5726;42.160;24.746;2023-02-01T13:05:51;99629.47;;;10.78;58.90
11343;BME280;5726;42.160;24.746;2023-02-01T13:08:25;99634.47;;;10.85;58.65
11343;BME280;5726;42.160;24.746;2023-02-01T13:11:06;99635.63;;;10.79;59.39
11343;BME280;5726;42.160;24.746;2023-02-01T13:16:16;99636.78;;;10.73;59.59
11343;BME280;5726;42.160;24.746;2023-02-01T13:18:46;99638.59;;;10.77;59.48
11343;BME280;5726;42.160;24.746;2023-02-01T13:21:22;99635.97;;;10.72;59.63
11343;BME280;5726;42.160;24.746;2023-02-01T13:23:50;99637.88;;;10.72;61.57
11343;BME280;5726;42.160;24.746;2023-02-01T13:26:16;99638.94;;;10.71;60.05
11343;BME280;5726;42.160;24.746;2023-02-01T13:29:04;99632.72;;;10.98;58.89
11343;BME280;5726;42.160;24.746;2023-02-01T13:43:10;99634.16;;;11.09;57.74
11343;BME280;5726;42.160;24.746;2023-02-01T13:45:18;99627.28;;;11.22;57.74
11343;BME280;5726;42.160;24.746;2023-02-01T13:47:47;99629.53;;;11.15;56.70
11343;BME280;5726;42.160;24.746;2023-02-01T13:50:21;99624.66;;;10.98;57.15
11343;BME280;5726;42.160;24.746;2023-02-01T13:53:16;99632.19;;;10.96;57.17
11343;BME280;5726;42.160;24.746;2023-02-01T13:55:47;99629.50;;;10.96;56.57
11343;BME280;5726;42.160;24.746;2023-02-01T13:58:22;99632.09;;;10.83;56.74
11343;BME280;5726;42.160;24.746;2023-02-01T14:11:40;99612.59;;;10.78;56.62
11343;BME280;5726;42.160;24.746;2023-02-01T14:19:20;99620.63;;;10.78;57.80
11343;BME280;5726;42.160;24.746;2023-02-01T14:21:54;99616.00;;;10.83;57.39
11343;BME280;5726;42.160;24.746;2023-02-01T14:24:25;99603.16;;;10.80;57.06
11343;BME280;5726;42.160;24.746;2023-02-01T14:26:52;99618.25;;;10.53;58.36
11343;BME280;5726;42.160;24.746;2023-02-01T14:37:03;99622.00;;;10.52;58.60
11343;BME280;5726;42.160;24.746;2023-02-01T14:42:12;99617.06;;;10.41;58.13
11343;BME280;5726;42.160;24.746;2023-02-01T14:44:40;99615.00;;;10.56;58.30
11343;BME280;5726;42.160;24.746;2023-02-01T14:52:51;99631.44;;;10.49;58.82
11343;BME280;5726;42.160;24.746;2023-02-01T14:55:33;99628.22;;;10.48;58.42
11343;BME280;5726;42.160;24.746;2023-02-01T14:58:04;99629.69;;;10.35;58.66
11343;BME280;5726;42.160;24.746;2023-02-01T15:00:31;99631.88;;;10.33;58.73
11343;BME280;5726;42.160;24.746;2023-02-01T15:06:21;99631.88;;;10.33;58.92
11343;BME280;5726;42.160;24.746;2023-02-01T15:08:48;99633.78;;;10.28;58.98
11343;BME280;5726;42.160;24.746;2023-02-01T15:11:15;99635.03;;;10.12;59.46
11343;BME280;5726;42.160;24.746;2023-02-01T15:13:49;99637.19;;;10.10;59.82
11343;BME280;5726;42.160;24.746;2023-02-01T15:16:16;99635.34;;;10.05;59.80
11343;BME280;5726;42.160;24.746;2023-02-01T15:18:42;99639.72;;;9.97;60.68
11343;BME280;5726;42.160;24.746;2023-02-01T15:21:20;99635.91;;;10.02;60.10
11343;BME280;5726;42.160;24.746;2023-02-01T15:23:46;99630.91;;;9.91;60.27
11343;BME280;5726;42.160;24.746;2023-02-01T15:26:33;99629.81;;;9.97;60.14
11343;BME280;5726;42.160;24.746;2023-02-01T15:28:59;99637.56;;;9.99;60.58
11343;BME280;5726;42.160;24.746;2023-02-01T15:31:36;99635.13;;;10.02;60.16
11343;BME280;5726;42.160;24.746;2023-02-01T15:34:02;99633.09;;;9.84;60.85
11343;BME280;5726;42.160;24.746;2023-02-01T15:39:20;99638.31;;;9.71;60.85
11343;BME280;5726;42.160;24.746;2023-02-01T15:42:20;99642.59;;;9.72;61.20
11343;BME280;5726;42.160;24.746;2023-02-01T15:44:46;99642.66;;;9.62;61.33
11343;BME280;5726;42.160;24.746;2023-02-01T15:47:16;99638.88;;;9.68;61.11
11343;BME280;5726;42.160;24.746;2023-02-01T15:49:44;99650.25;;;10.16;70.16
11343;BME280;5726;42.160;24.746;2023-02-01T15:52:37;99635.28;;;10.39;66.29
11343;BME280;5726;42.160;24.746;2023-02-01T15:55:53;99639.94;;;10.28;59.98
11343;BME280;5726;42.160;24.746;2023-02-01T15:57:52;99645.06;;;9.97;60.32
11343;BME280;5726;42.160;24.746;2023-02-01T16:02:55;99649.41;;;9.54;61.30
11343;BME280;5726;42.160;24.746;2023-02-01T16:05:42;99645.38;;;9.52;61.40
11343;BME280;5726;42.160;24.746;2023-02-01T16:08:16;99644.81;;;9.60;60.59